sensor_id;sensor_type;location;lat;lon;timestamp;P1;durP1;ratioP1;P2;durP2;ratioP2
11582;SDS011;34299;50.820;4.548;2023-03-23T00:00:54;4.27;;;2.80;;
11582;SDS011;34299;50.820;4.548;2023-03-23T00:03:22;3.77;;;1.90;;
11582;SDS011;34299;50.820;4.548;2023-03-23T00:05:54;4.07;;;2.50;;
11582;SDS011;34299;50.820;4.548;2023-03-23T00:08:24;3.13;;;2.73;;
11582;SDS011;34299;50.820;4.548;2023-03-23T00:10:52;3.80;;;2.87;;
11582;SDS011;34299;50.820;4.548;2023-03-23T00:13:22;3.13;;;2.57;;
11582;SDS011;34299;50.820;4.548;2023-03-23T00:15:49;3.70;;;1.57;;
11582;SDS011;34299;50.820;4.548;2023-03-23T00:18:18;4.10;;;2.70;;
11582;SDS011;34299;50.820;4.548;2023-03-23T00:20:48;3.27;;;2.40;;
11582;SDS011;34299;50.820;4.548;2023-03-23T00:23:16;4.33;;;2.23;;
11582;SDS011;34299;50.820;4.548;2023-03-23T00:25:47;2.00;;;1.63;;
11582;SDS011;34299;50.820;4.548;2023-03-23T00:28:14;2.17;;;1.93;;
11582;SDS011;34299;50.820;4.548;2023-03-23T00:30:42;5.43;;;3.03;;
11582;SDS011;34299;50.820;4.548;2023-03-23T00:33:09;2.60;;;2.40;;
11582;SDS011;34299;50.820;4.548;2023-03-23T00:35:39;3.40;;;2.43;;
11582;SDS011;34299;50.820;4.548;2023-03-23T00:38:06;1.30;;;1.20;;
11582;SDS011;34299;50.820;4.548;2023-03-23T00:40:34;4.60;;;2.60;;
11582;SDS011;34299;50.820;4.548;2023-03-23T00:43:02;2.03;;;1.77;;
11582;SDS011;34299;50.820;4.548;2023-03-23T00:45:30;3.70;;;2.27;;
11582;SDS011;34299;50.820;4.548;2023-03-23T00:47:59;3.60;;;2.00;;
11582;SDS011;34299;50.820;4.548;2023-03-23T00:50:29;2.50;;;2.10;;
11582;SDS011;34299;50.820;4.548;2023-03-23T00:52:58;2.57;;;2.00;;
11582;SDS011;34299;50.820;4.548;2023-03-23T00:55:25;4.20;;;2.90;;
11582;SDS011;34299;50.820;4.548;2023-03-23T00:57:52;9.50;;;2.70;;
11582;SDS011;34299;50.820;4.548;2023-03-23T01:00:20;4.20;;;2.20;;
11582;SDS011;34299;50.820;4.548;2023-03-23T01:02:47;2.27;;;1.73;;
11582;SDS011;34299;50.820;4.548;2023-03-23T01:05:16;2.20;;;1.67;;
11582;SDS011;34299;50.820;4.548;2023-03-23T01:07:43;5.10;;;2.67;;
11582;SDS011;34299;50.820;4.548;2023-03-23T01:10:13;3.10;;;2.07;;
11582;SDS011;34299;50.820;4.548;2023-03-23T01:12:41;3.60;;;1.70;;
11582;SDS011;34299;50.820;4.548;2023-03-23T01:15:09;3.93;;;1.97;;
11582;SDS011;34299;50.820;4.548;2023-03-23T01:17:40;2.60;;;2.23;;
11582;SDS011;34299;50.820;4.548;2023-03-23T01:20:07;2.70;;;2.03;;
11582;SDS011;34299;50.820;4.548;2023-03-23T01:22:35;2.57;;;2.07;;
11582;SDS011;34299;50.820;4.548;2023-03-23T01:25:03;3.97;;;1.87;;
11582;SDS011;34299;50.820;4.548;2023-03-23T01:27:32;2.80;;;2.33;;
11582;SDS011;34299;50.820;4.548;2023-03-23T01:29:59;3.30;;;2.50;;
11582;SDS011;34299;50.820;4.548;2023-03-23T01:32:26;3.40;;;2.03;;
11582;SDS011;34299;50.820;4.548;2023-03-23T01:34:54;3.50;;;2.27;;
11582;SDS011;34299;50.820;4.548;2023-03-23T01:37:21;2.17;;;1.67;;
11582;SDS011;34299;50.820;4.548;2023-03-23T01:39:51;3.37;;;2.87;;
11582;SDS011;34299;50.820;4.548;2023-03-23T01:42:20;2.13;;;1.93;;
11582;SDS011;34299;50.820;4.548;2023-03-23T01:47:43;2.30;;;2.10;;
11582;SDS011;34299;50.820;4.548;2023-03-23T01:50:11;1.70;;;1.57;;
11582;SDS011;34299;50.820;4.548;2023-03-23T01:52:38;4.10;;;2.47;;
11582;SDS011;34299;50.820;4.548;2023-03-23T01:55:06;4.73;;;2.60;;
11582;SDS011;34299;50.820;4.548;2023-03-23T01:57:33;1.87;;;1.47;;
11582;SDS011;34299;50.820;4.548;2023-03-23T02:00:02;3.33;;;2.00;;
11582;SDS011;34299;50.820;4.548;2023-03-23T02:02:41;1.50;;;1.40;;
11582;SDS011;34299;50.820;4.548;2023-03-23T02:05:12;4.10;;;1.80;;
11582;SDS011;34299;50.820;4.548;2023-03-23T02:07:40;3.33;;;1.53;;
11582;SDS011;34299;50.820;4.548;2023-03-23T02:10:09;4.70;;;2.37;;
11582;SDS011;34299;50.820;4.548;2023-03-23T02:12:36;2.10;;;1.40;;
11582;SDS011;34299;50.820;4.548;2023-03-23T02:15:04;3.60;;;2.37;;
11582;SDS011;34299;50.820;4.548;2023-03-23T02:17:33;2.73;;;2.30;;
11582;SDS011;34299;50.820;4.548;2023-03-23T02:20:13;4.50;;;2.47;;
11582;SDS011;34299;50.820;4.548;2023-03-23T02:22:49;4.97;;;2.37;;
11582;SDS011;34299;50.820;4.548;2023-03-23T02:25:28;2.73;;;1.87;;
11582;SDS011;34299;50.820;4.548;2023-03-23T02:28:21;1.70;;;1.60;;
11582;SDS011;34299;50.820;4.548;2023-03-23T02:31:01;2.20;;;1.60;;
11582;SDS011;34299;50.820;4.548;2023-03-23T02:33:43;4.57;;;2.17;;
11582;SDS011;34299;50.820;4.548;2023-03-23T02:36:18;1.37;;;1.27;;
11582;SDS011;34299;50.820;4.548;2023-03-23T02:38:48;3.20;;;2.00;;
11582;SDS011;34299;50.820;4.548;2023-03-23T02:41:17;3.43;;;1.60;;
11582;SDS011;34299;50.820;4.548;2023-03-23T02:43:46;4.13;;;2.50;;
11582;SDS011;34299;50.820;4.548;2023-03-23T02:46:14;1.60;;;1.50;;
11582;SDS011;34299;50.820;4.548;2023-03-23T02:48:43;1.00;;;0.90;;
11582;SDS011;34299;50.820;4.548;2023-03-23T02:51:13;2.30;;;1.27;;
11582;SDS011;34299;50.820;4.548;2023-03-23T02:53:41;1.17;;;0.90;;
11582;SDS011;34299;50.820;4.548;2023-03-23T02:56:09;2.77;;;1.40;;
11582;SDS011;34299;50.820;4.548;2023-03-23T02:58:37;1.23;;;1.13;;
11582;SDS011;34299;50.820;4.548;2023-03-23T03:03:51;1.23;;;1.10;;
11582;SDS011;34299;50.820;4.548;2023-03-23T03:06:21;2.83;;;1.70;;
11582;SDS011;34299;50.820;4.548;2023-03-23T03:08:54;1.77;;;1.00;;
11582;SDS011;34299;50.820;4.548;2023-03-23T03:11:22;3.73;;;1.70;;
11582;SDS011;34299;50.820;4.548;2023-03-23T03:13:52;1.33;;;1.23;;
11582;SDS011;34299;50.820;4.548;2023-03-23T03:16:24;2.27;;;1.27;;
11582;SDS011;34299;50.820;4.548;2023-03-23T03:18:56;2.07;;;1.10;;
11582;SDS011;34299;50.820;4.548;2023-03-23T03:21:25;1.17;;;0.90;;
11582;SDS011;34299;50.820;4.548;2023-03-23T03:23:53;2.57;;;1.40;;
11582;SDS011;34299;50.820;4.548;2023-03-23T03:26:24;1.30;;;1.20;;
11582;SDS011;34299;50.820;4.548;2023-03-23T03:28:52;1.83;;;1.17;;
11582;SDS011;34299;50.820;4.548;2023-03-23T03:31:20;3.70;;;1.30;;
11582;SDS011;34299;50.820;4.548;2023-03-23T03:33:49;1.23;;;1.13;;
11582;SDS011;34299;50.820;4.548;2023-03-23T03:36:18;1.50;;;1.40;;
11582;SDS011;34299;50.820;4.548;2023-03-23T03:38:48;1.33;;;1.23;;
11582;SDS011;34299;50.820;4.548;2023-03-23T03:41:16;2.97;;;1.17;;
11582;SDS011;34299;50.820;4.548;2023-03-23T03:43:43;4.33;;;1.70;;
11582;SDS011;34299;50.820;4.548;2023-03-23T03:46:10;1.97;;;1.37;;
11582;SDS011;34299;50.820;4.548;2023-03-23T03:48:38;1.70;;;1.57;;
11582;SDS011;34299;50.820;4.548;2023-03-23T03:51:05;1.50;;;1.40;;
11582;SDS011;34299;50.820;4.548;2023-03-23T03:53:35;2.30;;;1.87;;
11582;SDS011;34299;50.820;4.548;2023-03-23T03:56:02;2.60;;;1.90;;
11582;SDS011;34299;50.820;4.548;2023-03-23T03:58:30;4.10;;;1.40;;
11582;SDS011;34299;50.820;4.548;2023-03-23T04:00:58;2.13;;;1.70;;
11582;SDS011;34299;50.820;4.548;2023-03-23T04:03:25;4.80;;;1.60;;
11582;SDS011;34299;50.820;4.548;2023-03-23T04:05:53;1.83;;;1.37;;
11582;SDS011;34299;50.820;4.548;2023-03-23T04:08:21;2.13;;;1.20;;
11582;SDS011;34299;50.820;4.548;2023-03-23T04:10:50;1.63;;;1.40;;
11582;SDS011;34299;50.820;4.548;2023-03-23T04:13:18;2.03;;;1.30;;
11582;SDS011;34299;50.820;4.548;2023-03-23T04:15:46;2.50;;;1.77;;
11582;SDS011;34299;50.820;4.548;2023-03-23T04:18:14;2.37;;;1.60;;
11582;SDS011;34299;50.820;4.548;2023-03-23T04:20:43;2.30;;;2.10;;
11582;SDS011;34299;50.820;4.548;2023-03-23T04:23:12;2.27;;;1.30;;
11582;SDS011;34299;50.820;4.548;2023-03-23T04:25:39;2.73;;;1.27;;
11582;SDS011;34299;50.820;4.548;2023-03-23T04:28:08;3.73;;;1.37;;
11582;SDS011;34299;50.820;4.548;2023-03-23T04:30:36;1.80;;;1.20;;
11582;SDS011;34299;50.820;4.548;2023-03-23T04:33:03;1.80;;;1.10;;
11582;SDS011;34299;50.820;4.548;2023-03-23T04:35:31;2.27;;;1.07;;
11582;SDS011;34299;50.820;4.548;2023-03-23T04:37:59;0.60;;;0.60;;
11582;SDS011;34299;50.820;4.548;2023-03-23T04:40:26;2.30;;;0.87;;
11582;SDS011;34299;50.820;4.548;2023-03-23T04:42:53;3.00;;;1.30;;
11582;SDS011;34299;50.820;4.548;2023-03-23T04:45:24;2.50;;;1.30;;
11582;SDS011;34299;50.820;4.548;2023-03-23T04:47:53;1.37;;;0.90;;
11582;SDS011;34299;50.820;4.548;2023-03-23T04:50:22;1.90;;;1.13;;
11582;SDS011;34299;50.820;4.548;2023-03-23T04:52:50;1.00;;;1.00;;
11582;SDS011;34299;50.820;4.548;2023-03-23T04:55:19;1.57;;;1.17;;
11582;SDS011;34299;50.820;4.548;2023-03-23T04:57:47;0.80;;;0.73;;
11582;SDS011;34299;50.820;4.548;2023-03-23T05:00:14;2.47;;;1.37;;
11582;SDS011;34299;50.820;4.548;2023-03-23T05:02:43;2.73;;;0.80;;
11582;SDS011;34299;50.820;4.548;2023-03-23T05:05:12;3.97;;;1.57;;
11582;SDS011;34299;50.820;4.548;2023-03-23T05:07:40;1.90;;;1.07;;
11582;SDS011;34299;50.820;4.548;2023-03-23T05:10:08;1.20;;;0.70;;
11582;SDS011;34299;50.820;4.548;2023-03-23T05:12:36;2.23;;;1.20;;
11582;SDS011;34299;50.820;4.548;2023-03-23T05:15:03;2.83;;;1.37;;
11582;SDS011;34299;50.820;4.548;2023-03-23T05:17:31;3.00;;;1.33;;
11582;SDS011;34299;50.820;4.548;2023-03-23T05:20:00;1.30;;;0.90;;
11582;SDS011;34299;50.820;4.548;2023-03-23T05:22:29;2.27;;;1.00;;
11582;SDS011;34299;50.820;4.548;2023-03-23T05:24:57;2.83;;;1.37;;
11582;SDS011;34299;50.820;4.548;2023-03-23T05:27:27;4.33;;;1.33;;
11582;SDS011;34299;50.820;4.548;2023-03-23T05:29:55;4.17;;;1.90;;
11582;SDS011;34299;50.820;4.548;2023-03-23T05:32:23;1.13;;;0.70;;
11582;SDS011;34299;50.820;4.548;2023-03-23T05:34:54;2.37;;;1.50;;
11582;SDS011;34299;50.820;4.548;2023-03-23T05:37:23;3.30;;;1.33;;
11582;SDS011;34299;50.820;4.548;2023-03-23T05:39:50;3.30;;;1.30;;
11582;SDS011;34299;50.820;4.548;2023-03-23T05:42:19;2.43;;;0.70;;
11582;SDS011;34299;50.820;4.548;2023-03-23T05:44:47;1.73;;;1.40;;
11582;SDS011;34299;50.820;4.548;2023-03-23T05:47:14;0.97;;;0.97;;
11582;SDS011;34299;50.820;4.548;2023-03-23T05:49:42;2.33;;;1.40;;
11582;SDS011;34299;50.820;4.548;2023-03-23T05:52:09;2.70;;;1.37;;
11582;SDS011;34299;50.820;4.548;2023-03-23T05:54:37;2.37;;;1.07;;
11582;SDS011;34299;50.820;4.548;2023-03-23T05:57:06;3.43;;;1.00;;
11582;SDS011;34299;50.820;4.548;2023-03-23T05:59:34;3.10;;;1.60;;
11582;SDS011;34299;50.820;4.548;2023-03-23T06:02:01;2.33;;;1.20;;
11582;SDS011;34299;50.820;4.548;2023-03-23T06:04:28;7.97;;;1.30;;
11582;SDS011;34299;50.820;4.548;2023-03-23T06:06:58;2.57;;;1.30;;
11582;SDS011;34299;50.820;4.548;2023-03-23T06:09:25;3.20;;;1.67;;
11582;SDS011;34299;50.820;4.548;2023-03-23T06:11:54;2.60;;;1.23;;
11582;SDS011;34299;50.820;4.548;2023-03-23T06:14:22;2.77;;;1.10;;
11582;SDS011;34299;50.820;4.548;2023-03-23T06:16:49;2.83;;;1.37;;
11582;SDS011;34299;50.820;4.548;2023-03-23T06:19:16;1.40;;;0.90;;
11582;SDS011;34299;50.820;4.548;2023-03-23T06:21:43;3.20;;;1.70;;
11582;SDS011;34299;50.820;4.548;2023-03-23T06:24:11;1.90;;;1.10;;
11582;SDS011;34299;50.820;4.548;2023-03-23T06:26:38;7.30;;;1.20;;
11582;SDS011;34299;50.820;4.548;2023-03-23T06:29:09;1.43;;;1.03;;
11582;SDS011;34299;50.820;4.548;2023-03-23T06:31:37;8.10;;;1.80;;
11582;SDS011;34299;50.820;4.548;2023-03-23T06:34:05;3.80;;;1.00;;
11582;SDS011;34299;50.820;4.548;2023-03-23T06:36:32;2.57;;;1.60;;
11582;SDS011;34299;50.820;4.548;2023-03-23T06:38:59;3.47;;;1.47;;
11582;SDS011;34299;50.820;4.548;2023-03-23T06:41:29;2.40;;;1.03;;
11582;SDS011;34299;50.820;4.548;2023-03-23T06:43:56;3.13;;;1.33;;
11582;SDS011;34299;50.820;4.548;2023-03-23T06:46:25;5.10;;;1.33;;
11582;SDS011;34299;50.820;4.548;2023-03-23T06:48:52;4.47;;;1.50;;
11582;SDS011;34299;50.820;4.548;2023-03-23T06:51:20;2.30;;;1.00;;
11582;SDS011;34299;50.820;4.548;2023-03-23T06:53:47;6.53;;;1.57;;
11582;SDS011;34299;50.820;4.548;2023-03-23T06:56:14;3.33;;;1.20;;
11582;SDS011;34299;50.820;4.548;2023-03-23T06:58:42;1.53;;;0.97;;
11582;SDS011;34299;50.820;4.548;2023-03-23T07:01:10;1.20;;;0.70;;
11582;SDS011;34299;50.820;4.548;2023-03-23T07:03:39;7.73;;;1.47;;
11582;SDS011;34299;50.820;4.548;2023-03-23T07:06:07;4.60;;;0.97;;
11582;SDS011;34299;50.820;4.548;2023-03-23T07:08:35;1.87;;;1.10;;
11582;SDS011;34299;50.820;4.548;2023-03-23T07:11:02;4.20;;;1.10;;
11582;SDS011;34299;50.820;4.548;2023-03-23T07:13:30;2.33;;;0.90;;
11582;SDS011;34299;50.820;4.548;2023-03-23T07:15:58;2.43;;;1.10;;
11582;SDS011;34299;50.820;4.548;2023-03-23T07:18:25;2.83;;;1.10;;
11582;SDS011;34299;50.820;4.548;2023-03-23T07:20:55;1.17;;;0.97;;
11582;SDS011;34299;50.820;4.548;2023-03-23T07:23:22;2.77;;;1.37;;
11582;SDS011;34299;50.820;4.548;2023-03-23T07:25:50;1.80;;;1.00;;
11582;SDS011;34299;50.820;4.548;2023-03-23T07:28:18;2.63;;;1.27;;
11582;SDS011;34299;50.820;4.548;2023-03-23T07:30:46;9.73;;;1.63;;
11582;SDS011;34299;50.820;4.548;2023-03-23T07:33:13;2.43;;;1.63;;
11582;SDS011;34299;50.820;4.548;2023-03-23T07:35:41;4.53;;;1.73;;
11582;SDS011;34299;50.820;4.548;2023-03-23T07:38:09;1.57;;;1.30;;
11582;SDS011;34299;50.820;4.548;2023-03-23T07:40:37;1.80;;;1.30;;
11582;SDS011;34299;50.820;4.548;2023-03-23T07:43:04;1.87;;;1.33;;
11582;SDS011;34299;50.820;4.548;2023-03-23T07:45:32;1.87;;;1.10;;
11582;SDS011;34299;50.820;4.548;2023-03-23T07:47:59;1.43;;;1.00;;
11582;SDS011;34299;50.820;4.548;2023-03-23T07:50:26;4.70;;;1.50;;
11582;SDS011;34299;50.820;4.548;2023-03-23T07:52:54;2.00;;;1.30;;
11582;SDS011;34299;50.820;4.548;2023-03-23T07:55:24;3.77;;;1.20;;
11582;SDS011;34299;50.820;4.548;2023-03-23T07:57:52;1.03;;;1.00;;
11582;SDS011;34299;50.820;4.548;2023-03-23T08:00:21;2.80;;;1.37;;
11582;SDS011;34299;50.820;4.548;2023-03-23T08:02:49;3.03;;;1.33;;
11582;SDS011;34299;50.820;4.548;2023-03-23T08:05:17;2.33;;;1.50;;
11582;SDS011;34299;50.820;4.548;2023-03-23T08:07:45;3.87;;;1.27;;
11582;SDS011;34299;50.820;4.548;2023-03-23T08:10:13;1.83;;;1.40;;
11582;SDS011;34299;50.820;4.548;2023-03-23T08:12:43;1.27;;;1.03;;
11582;SDS011;34299;50.820;4.548;2023-03-23T08:15:13;1.93;;;0.97;;
11582;SDS011;34299;50.820;4.548;2023-03-23T08:17:41;1.23;;;0.90;;
11582;SDS011;34299;50.820;4.548;2023-03-23T08:20:09;1.33;;;0.80;;
11582;SDS011;34299;50.820;4.548;2023-03-23T08:22:38;1.70;;;0.77;;
11582;SDS011;34299;50.820;4.548;2023-03-23T08:25:06;1.00;;;0.80;;
11582;SDS011;34299;50.820;4.548;2023-03-23T08:27:34;1.23;;;0.93;;
11582;SDS011;34299;50.820;4.548;2023-03-23T08:30:03;1.93;;;0.77;;
11582;SDS011;34299;50.820;4.548;2023-03-23T08:32:32;0.87;;;0.60;;
11582;SDS011;34299;50.820;4.548;2023-03-23T08:35:00;0.77;;;0.73;;
11582;SDS011;34299;50.820;4.548;2023-03-23T08:37:28;0.90;;;0.60;;
11582;SDS011;34299;50.820;4.548;2023-03-23T08:39:55;2.67;;;0.90;;
11582;SDS011;34299;50.820;4.548;2023-03-23T08:42:23;0.97;;;0.70;;
11582;SDS011;34299;50.820;4.548;2023-03-23T08:44:50;0.67;;;0.67;;
11582;SDS011;34299;50.820;4.548;2023-03-23T08:47:19;0.93;;;0.77;;
11582;SDS011;34299;50.820;4.548;2023-03-23T08:49:46;1.27;;;0.53;;
11582;SDS011;34299;50.820;4.548;2023-03-23T08:52:17;2.33;;;0.80;;
11582;SDS011;34299;50.820;4.548;2023-03-23T08:54:45;4.33;;;1.27;;
11582;SDS011;34299;50.820;4.548;2023-03-23T08:57:13;0.70;;;0.70;;
11582;SDS011;34299;50.820;4.548;2023-03-23T08:59:41;2.33;;;0.50;;
11582;SDS011;34299;50.820;4.548;2023-03-23T09:02:09;2.00;;;0.80;;
11582;SDS011;34299;50.820;4.548;2023-03-23T09:04:39;0.30;;;0.30;;
11582;SDS011;34299;50.820;4.548;2023-03-23T09:07:08;0.70;;;0.70;;
11582;SDS011;34299;50.820;4.548;2023-03-23T09:09:36;0.80;;;0.77;;
11582;SDS011;34299;50.820;4.548;2023-03-23T09:12:04;1.10;;;0.73;;
11582;SDS011;34299;50.820;4.548;2023-03-23T09:14:32;2.83;;;1.00;;
11582;SDS011;34299;50.820;4.548;2023-03-23T09:16:59;1.40;;;1.00;;
11582;SDS011;34299;50.820;4.548;2023-03-23T09:19:28;2.30;;;0.60;;
11582;SDS011;34299;50.820;4.548;2023-03-23T09:21:57;2.73;;;0.90;;
11582;SDS011;34299;50.820;4.548;2023-03-23T09:24:25;0.73;;;0.67;;
11582;SDS011;34299;50.820;4.548;2023-03-23T09:26:52;1.60;;;0.63;;
11582;SDS011;34299;50.820;4.548;2023-03-23T09:29:20;3.83;;;1.37;;
11582;SDS011;34299;50.820;4.548;2023-03-23T09:31:47;2.83;;;1.10;;
11582;SDS011;34299;50.820;4.548;2023-03-23T09:34:14;4.93;;;0.93;;
11582;SDS011;34299;50.820;4.548;2023-03-23T09:36:42;1.90;;;1.20;;
11582;SDS011;34299;50.820;4.548;2023-03-23T09:39:10;1.03;;;0.90;;
11582;SDS011;34299;50.820;4.548;2023-03-23T09:41:45;3.63;;;0.70;;
11582;SDS011;34299;50.820;4.548;2023-03-23T09:44:19;1.17;;;0.77;;
11582;SDS011;34299;50.820;4.548;2023-03-23T09:46:52;2.90;;;1.20;;
11582;SDS011;34299;50.820;4.548;2023-03-23T09:49:24;1.70;;;1.47;;
11582;SDS011;34299;50.820;4.548;2023-03-23T09:51:54;1.07;;;0.97;;
11582;SDS011;34299;50.820;4.548;2023-03-23T09:54:26;2.87;;;1.20;;
11582;SDS011;34299;50.820;4.548;2023-03-23T09:56:54;1.33;;;0.80;;
11582;SDS011;34299;50.820;4.548;2023-03-23T09:59:23;1.07;;;1.00;;
11582;SDS011;34299;50.820;4.548;2023-03-23T10:01:51;1.83;;;0.83;;
11582;SDS011;34299;50.820;4.548;2023-03-23T10:04:23;2.73;;;0.97;;
11582;SDS011;34299;50.820;4.548;2023-03-23T10:06:51;3.70;;;1.40;;
11582;SDS011;34299;50.820;4.548;2023-03-23T10:09:19;4.27;;;1.33;;
11582;SDS011;34299;50.820;4.548;2023-03-23T10:11:51;1.60;;;1.50;;
11582;SDS011;34299;50.820;4.548;2023-03-23T10:14:27;2.17;;;0.87;;
11582;SDS011;34299;50.820;4.548;2023-03-23T10:16:59;3.23;;;1.10;;
11582;SDS011;34299;50.820;4.548;2023-03-23T10:19:29;4.17;;;1.40;;
11582;SDS011;34299;50.820;4.548;2023-03-23T10:21:59;2.03;;;1.40;;
11582;SDS011;34299;50.820;4.548;2023-03-23T10:24:30;3.47;;;1.40;;
11582;SDS011;34299;50.820;4.548;2023-03-23T10:27:01;1.70;;;1.37;;
11582;SDS011;34299;50.820;4.548;2023-03-23T10:29:30;0.97;;;0.90;;
11582;SDS011;34299;50.820;4.548;2023-03-23T10:31:59;3.00;;;1.57;;
11582;SDS011;34299;50.820;4.548;2023-03-23T10:34:28;3.23;;;1.57;;
11582;SDS011;34299;50.820;4.548;2023-03-23T10:37:01;1.20;;;1.10;;
11582;SDS011;34299;50.820;4.548;2023-03-23T10:39:30;1.57;;;1.47;;
11582;SDS011;34299;50.820;4.548;2023-03-23T10:42:01;3.27;;;1.50;;
11582;SDS011;34299;50.820;4.548;2023-03-23T10:44:33;1.87;;;1.40;;
11582;SDS011;34299;50.820;4.548;2023-03-23T10:47:01;1.97;;;1.63;;
11582;SDS011;34299;50.820;4.548;2023-03-23T10:49:32;3.47;;;1.63;;
11582;SDS011;34299;50.820;4.548;2023-03-23T10:52:01;3.73;;;1.30;;
11582;SDS011;34299;50.820;4.548;2023-03-23T10:54:32;1.67;;;1.47;;
11582;SDS011;34299;50.820;4.548;2023-03-23T10:57:01;2.33;;;1.90;;
11582;SDS011;34299;50.820;4.548;2023-03-23T10:59:40;2.77;;;1.40;;
11582;SDS011;34299;50.820;4.548;2023-03-23T11:02:10;4.83;;;1.40;;
11582;SDS011;34299;50.820;4.548;2023-03-23T11:04:37;4.07;;;1.70;;
11582;SDS011;34299;50.820;4.548;2023-03-23T11:07:04;1.83;;;1.53;;
11582;SDS011;34299;50.820;4.548;2023-03-23T11:09:35;3.43;;;1.37;;
11582;SDS011;34299;50.820;4.548;2023-03-23T11:12:15;7.67;;;1.93;;
11582;SDS011;34299;50.820;4.548;2023-03-23T11:14:42;4.27;;;1.50;;
11582;SDS011;34299;50.820;4.548;2023-03-23T11:17:20;2.33;;;1.80;;
11582;SDS011;34299;50.820;4.548;2023-03-23T11:19:48;4.50;;;1.90;;
11582;SDS011;34299;50.820;4.548;2023-03-23T11:22:16;2.53;;;2.00;;
11582;SDS011;34299;50.820;4.548;2023-03-23T11:24:46;4.73;;;2.43;;
11582;SDS011;34299;50.820;4.548;2023-03-23T11:27:15;3.03;;;2.10;;
11582;SDS011;34299;50.820;4.548;2023-03-23T11:29:45;4.67;;;2.73;;
11582;SDS011;34299;50.820;4.548;2023-03-23T11:32:14;7.37;;;3.67;;
11582;SDS011;34299;50.820;4.548;2023-03-23T11:34:42;5.13;;;3.17;;
11582;SDS011;34299;50.820;4.548;2023-03-23T11:37:12;3.97;;;2.50;;
11582;SDS011;34299;50.820;4.548;2023-03-23T11:39:48;4.47;;;2.77;;
11582;SDS011;34299;50.820;4.548;2023-03-23T11:42:20;4.70;;;2.40;;
11582;SDS011;34299;50.820;4.548;2023-03-23T11:44:47;8.03;;;3.37;;
11582;SDS011;34299;50.820;4.548;2023-03-23T11:47:16;6.53;;;3.17;;
11582;SDS011;34299;50.820;4.548;2023-03-23T11:49:47;6.47;;;2.63;;
11582;SDS011;34299;50.820;4.548;2023-03-23T11:52:19;4.10;;;1.70;;
11582;SDS011;34299;50.820;4.548;2023-03-23T11:54:52;1.37;;;1.27;;
11582;SDS011;34299;50.820;4.548;2023-03-23T11:57:22;4.73;;;1.47;;
11582;SDS011;34299;50.820;4.548;2023-03-23T11:59:49;3.53;;;1.40;;
11582;SDS011;34299;50.820;4.548;2023-03-23T12:02:25;4.43;;;1.27;;
11582;SDS011;34299;50.820;4.548;2023-03-23T12:04:57;2.60;;;1.40;;
11582;SDS011;34299;50.820;4.548;2023-03-23T12:07:32;2.33;;;1.63;;
11582;SDS011;34299;50.820;4.548;2023-03-23T12:10:06;2.70;;;1.17;;
11582;SDS011;34299;50.820;4.548;2023-03-23T12:12:38;2.67;;;1.40;;
11582;SDS011;34299;50.820;4.548;2023-03-23T12:15:09;4.43;;;1.53;;
11582;SDS011;34299;50.820;4.548;2023-03-23T12:17:40;3.23;;;1.90;;
11582;SDS011;34299;50.820;4.548;2023-03-23T12:20:17;4.73;;;1.40;;
11582;SDS011;34299;50.820;4.548;2023-03-23T12:22:50;3.03;;;1.60;;
11582;SDS011;34299;50.820;4.548;2023-03-23T12:25:30;2.10;;;1.40;;
11582;SDS011;34299;50.820;4.548;2023-03-23T12:28:03;4.03;;;1.30;;
11582;SDS011;34299;50.820;4.548;2023-03-23T12:30:34;4.93;;;2.00;;
11582;SDS011;34299;50.820;4.548;2023-03-23T12:33:09;2.73;;;1.80;;
11582;SDS011;34299;50.820;4.548;2023-03-23T12:35:44;2.93;;;1.20;;
11582;SDS011;34299;50.820;4.548;2023-03-23T12:38:31;4.13;;;1.70;;
11582;SDS011;34299;50.820;4.548;2023-03-23T12:41:02;1.90;;;1.00;;
11582;SDS011;34299;50.820;4.548;2023-03-23T12:43:36;2.30;;;1.03;;
11582;SDS011;34299;50.820;4.548;2023-03-23T12:46:09;6.27;;;1.60;;
11582;SDS011;34299;50.820;4.548;2023-03-23T12:48:42;3.17;;;1.10;;
11582;SDS011;34299;50.820;4.548;2023-03-23T12:51:12;3.40;;;1.27;;
11582;SDS011;34299;50.820;4.548;2023-03-23T12:53:42;2.80;;;1.50;;
11582;SDS011;34299;50.820;4.548;2023-03-23T12:56:12;3.20;;;1.20;;
11582;SDS011;34299;50.820;4.548;2023-03-23T12:58:44;2.40;;;1.87;;
11582;SDS011;34299;50.820;4.548;2023-03-23T13:01:12;5.87;;;2.30;;
11582;SDS011;34299;50.820;4.548;2023-03-23T13:03:48;4.40;;;2.20;;
11582;SDS011;34299;50.820;4.548;2023-03-23T13:06:19;3.43;;;2.07;;
11582;SDS011;34299;50.820;4.548;2023-03-23T13:08:51;4.00;;;1.57;;
11582;SDS011;34299;50.820;4.548;2023-03-23T13:11:21;6.17;;;2.07;;
11582;SDS011;34299;50.820;4.548;2023-03-23T13:13:52;5.00;;;2.00;;
11582;SDS011;34299;50.820;4.548;2023-03-23T13:16:25;7.87;;;2.10;;
11582;SDS011;34299;50.820;4.548;2023-03-23T13:18:58;6.60;;;1.77;;
11582;SDS011;34299;50.820;4.548;2023-03-23T13:21:30;2.50;;;1.77;;
11582;SDS011;34299;50.820;4.548;2023-03-23T13:23:58;3.20;;;2.03;;
11582;SDS011;34299;50.820;4.548;2023-03-23T13:26:27;5.00;;;2.30;;
11582;SDS011;34299;50.820;4.548;2023-03-23T13:28:57;5.47;;;2.67;;
11582;SDS011;34299;50.820;4.548;2023-03-23T13:31:27;4.00;;;1.90;;
11582;SDS011;34299;50.820;4.548;2023-03-23T13:33:58;4.33;;;2.00;;
11582;SDS011;34299;50.820;4.548;2023-03-23T13:36:27;4.40;;;1.73;;
11582;SDS011;34299;50.820;4.548;2023-03-23T13:38:55;4.13;;;2.00;;
11582;SDS011;34299;50.820;4.548;2023-03-23T13:41:24;5.10;;;2.20;;
11582;SDS011;34299;50.820;4.548;2023-03-23T13:43:52;2.40;;;1.60;;
11582;SDS011;34299;50.820;4.548;2023-03-23T13:46:28;2.13;;;1.47;;
11582;SDS011;34299;50.820;4.548;2023-03-23T13:49:04;2.83;;;2.10;;
11582;SDS011;34299;50.820;4.548;2023-03-23T13:51:33;2.73;;;1.60;;
11582;SDS011;34299;50.820;4.548;2023-03-23T13:54:15;8.17;;;2.37;;
11582;SDS011;34299;50.820;4.548;2023-03-23T13:56:48;2.60;;;1.50;;
11582;SDS011;34299;50.820;4.548;2023-03-23T13:59:28;3.67;;;2.33;;
11582;SDS011;34299;50.820;4.548;2023-03-23T14:04:44;4.27;;;1.80;;
11582;SDS011;34299;50.820;4.548;2023-03-23T14:07:15;4.37;;;2.13;;
11582;SDS011;34299;50.820;4.548;2023-03-23T14:09:44;3.17;;;1.50;;
11582;SDS011;34299;50.820;4.548;2023-03-23T14:12:14;3.53;;;1.70;;
11582;SDS011;34299;50.820;4.548;2023-03-23T14:14:42;2.73;;;1.80;;
11582;SDS011;34299;50.820;4.548;2023-03-23T14:17:12;2.30;;;1.70;;
11582;SDS011;34299;50.820;4.548;2023-03-23T14:19:40;3.00;;;1.73;;
11582;SDS011;34299;50.820;4.548;2023-03-23T14:22:16;2.97;;;1.90;;
11582;SDS011;34299;50.820;4.548;2023-03-23T14:24:44;4.87;;;2.13;;
11582;SDS011;34299;50.820;4.548;2023-03-23T14:27:12;6.90;;;1.80;;
11582;SDS011;34299;50.820;4.548;2023-03-23T14:29:39;7.87;;;2.03;;
11582;SDS011;34299;50.820;4.548;2023-03-23T14:32:08;4.47;;;1.93;;
11582;SDS011;34299;50.820;4.548;2023-03-23T14:34:39;2.70;;;1.67;;
11582;SDS011;34299;50.820;4.548;2023-03-23T14:37:08;5.63;;;1.90;;
11582;SDS011;34299;50.820;4.548;2023-03-23T14:39:36;8.43;;;1.80;;
11582;SDS011;34299;50.820;4.548;2023-03-23T14:42:05;6.40;;;2.30;;
11582;SDS011;34299;50.820;4.548;2023-03-23T14:44:35;6.57;;;2.10;;
11582;SDS011;34299;50.820;4.548;2023-03-23T14:47:04;3.10;;;1.93;;
11582;SDS011;34299;50.820;4.548;2023-03-23T14:49:34;7.57;;;1.97;;
11582;SDS011;34299;50.820;4.548;2023-03-23T14:52:08;6.30;;;2.10;;
11582;SDS011;34299;50.820;4.548;2023-03-23T14:54:36;3.93;;;1.63;;
11582;SDS011;34299;50.820;4.548;2023-03-23T14:57:10;4.27;;;1.80;;
11582;SDS011;34299;50.820;4.548;2023-03-23T14:59:39;4.43;;;1.63;;
11582;SDS011;34299;50.820;4.548;2023-03-23T15:02:08;6.13;;;1.70;;
11582;SDS011;34299;50.820;4.548;2023-03-23T15:04:38;3.70;;;1.40;;
11582;SDS011;34299;50.820;4.548;2023-03-23T15:07:08;7.10;;;1.83;;
11582;SDS011;34299;50.820;4.548;2023-03-23T15:09:38;0.80;;;0.80;;